createdAt,value
2023-03-16T00:00:44.626Z,77.92
2023-03-16T00:02:46.097Z,78.40
2023-03-16T00:04:47.619Z,78.14
2023-03-16T00:06:49.007Z,78.12
2023-03-16T00:08:50.457Z,78.25
2023-03-16T00:10:54.046Z,77.63
2023-03-16T00:12:56.657Z,77.58
2023-03-16T00:14:58.031Z,77.83
2023-03-16T00:16:59.381Z,78.69
2023-03-16T00:19:03.085Z,78.03
2023-03-16T00:21:05.869Z,79.35
2023-03-16T00:23:07.450Z,79.03
2023-03-16T00:25:14.350Z,80.09
2023-03-16T00:27:16.014Z,79.44
2023-03-16T00:29:17.468Z,79.73
2023-03-16T00:31:19.109Z,79.72
2023-03-16T00:33:20.810Z,79.45
2023-03-16T00:35:22.186Z,79.41
2023-03-16T00:37:25.605Z,79.11
2023-03-16T00:39:27.051Z,79.01
2023-03-16T00:41:28.449Z,78.14
2023-03-16T00:43:31.418Z,78.29
2023-03-16T00:45:33.076Z,78.34
2023-03-16T00:47:35.018Z,78.83
2023-03-16T00:49:36.657Z,79.26
2023-03-16T00:51:38.070Z,79.63
2023-03-16T00:53:41.543Z,80.35
2023-03-16T00:55:43.042Z,79.85
2023-03-16T00:57:44.857Z,80.25
2023-03-16T00:59:46.667Z,80.04
2023-03-16T01:01:48.332Z,80.27
2023-03-16T01:03:49.714Z,79.89
2023-03-16T01:05:51.145Z,79.50
2023-03-16T01:07:52.544Z,79.71
2023-03-16T01:09:53.941Z,79.73
2023-03-16T01:11:55.381Z,79.44
2023-03-16T01:13:56.934Z,79.27
2023-03-16T01:15:59.736Z,78.32
2023-03-16T01:18:01.862Z,77.58
2023-03-16T01:20:08.059Z,78.07
2023-03-16T01:22:10.485Z,77.16
2023-03-16T01:24:11.911Z,78.07
2023-03-16T01:26:15.133Z,77.31
2023-03-16T01:28:16.527Z,76.49
2023-03-16T01:30:17.917Z,77.03
2023-03-16T01:32:19.396Z,77.15
2023-03-16T01:34:20.844Z,77.99
2023-03-16T01:36:22.235Z,78.08
2023-03-16T01:38:24.385Z,78.08
2023-03-16T01:40:25.970Z,77.45
2023-03-16T01:42:27.787Z,78.53
2023-03-16T01:44:32.556Z,78.19
2023-03-16T01:46:34.415Z,78.24
2023-03-16T01:48:39.101Z,77.98
2023-03-16T01:50:42.192Z,77.44
2023-03-16T01:52:43.673Z,76.99
2023-03-16T01:55:13.000Z,77.03
2023-03-16T01:57:30.373Z,77.94
2023-03-16T01:59:57.800Z,78.45
2023-03-16T02:02:00.318Z,78.43
2023-03-16T02:04:33.840Z,78.24
2023-03-16T02:06:36.967Z,78.69
2023-03-16T02:08:40.493Z,77.93
2023-03-16T02:10:43.131Z,77.74
2023-03-16T02:12:44.965Z,77.97
2023-03-16T02:14:48.412Z,77.31
2023-03-16T02:16:50.617Z,76.69
2023-03-16T02:18:52.065Z,76.19
2023-03-16T02:21:02.659Z,76.83
2023-03-16T02:23:07.242Z,76.71
2023-03-16T02:25:10.435Z,77.66
2023-03-16T02:27:39.780Z,75.96
2023-03-16T02:30:02.349Z,76.20
2023-03-16T02:32:05.499Z,75.84
2023-03-16T02:34:09.434Z,75.77
2023-03-16T02:36:12.771Z,76.61
2023-03-16T02:38:14.252Z,75.78
2023-03-16T02:40:28.677Z,76.09
2023-03-16T02:42:30.243Z,76.42
2023-03-16T02:44:36.375Z,75.81
2023-03-16T02:46:38.898Z,75.92
2023-03-16T02:48:48.006Z,76.26
2023-03-16T02:50:53.265Z,75.86
2023-03-16T02:52:54.664Z,75.86
2023-03-16T02:54:56.041Z,75.45
2023-03-16T02:56:57.671Z,76.41
2023-03-16T02:58:59.081Z,76.24
2023-03-16T03:01:01.346Z,76.30
2023-03-16T03:03:03.420Z,76.69
2023-03-16T03:05:05.369Z,77.30
2023-03-16T03:07:06.809Z,77.29
2023-03-16T03:09:08.799Z,76.92
2023-03-16T03:11:10.254Z,77.58
2023-03-16T03:13:13.441Z,76.94
2023-03-16T03:15:16.597Z,76.99
2023-03-16T03:17:17.993Z,76.99
2023-03-16T03:19:19.390Z,77.48
2023-03-16T03:21:21.702Z,76.92
2023-03-16T03:23:23.591Z,76.42
2023-03-16T03:25:25.089Z,76.06
2023-03-16T03:27:26.493Z,76.97
2023-03-16T03:29:34.490Z,76.26
2023-03-16T03:31:35.968Z,75.66
2023-03-16T03:33:37.330Z,76.61
2023-03-16T03:35:38.813Z,76.06
2023-03-16T03:37:41.051Z,75.86
2023-03-16T03:39:42.656Z,75.98
2023-03-16T03:41:44.053Z,75.92
2023-03-16T03:43:45.443Z,75.98
2023-03-16T03:45:47.267Z,75.61
2023-03-16T03:47:48.664Z,75.48
2023-03-16T03:49:50.038Z,76.17
2023-03-16T03:51:51.485Z,75.83
2023-03-16T03:53:52.878Z,75.64
2023-03-16T03:55:54.414Z,75.22
2023-03-16T03:57:55.788Z,74.49
2023-03-16T03:59:57.217Z,75.31
2023-03-16T04:01:58.795Z,74.76
2023-03-16T04:04:00.592Z,74.43
2023-03-16T04:06:02.119Z,74.22
2023-03-16T04:08:04.227Z,75.15
2023-03-16T04:10:07.558Z,75.13
2023-03-16T04:12:13.718Z,74.09
2023-03-16T04:14:15.105Z,73.80
2023-03-16T04:16:17.178Z,73.61
2023-03-16T04:18:18.588Z,72.96
2023-03-16T04:20:20.748Z,74.12
2023-03-16T04:22:23.247Z,73.53
2023-03-16T04:24:24.668Z,73.29
2023-03-16T04:26:26.067Z,72.27
2023-03-16T04:28:27.630Z,73.54
2023-03-16T04:30:30.959Z,73.54
2023-03-16T04:32:33.605Z,72.59
2023-03-16T04:34:35.092Z,71.95
2023-03-16T04:36:36.484Z,72.08
2023-03-16T04:38:37.892Z,72.17
2023-03-16T04:40:39.308Z,71.90
2023-03-16T04:42:40.703Z,71.47
2023-03-16T04:44:44.344Z,72.01
2023-03-16T04:46:45.848Z,72.23
2023-03-16T04:48:47.217Z,71.46
2023-03-16T04:50:48.745Z,71.04
2023-03-16T04:52:50.112Z,72.45
2023-03-16T04:54:51.822Z,71.93
2023-03-16T04:56:53.220Z,71.61
2023-03-16T04:58:56.877Z,71.96
2023-03-16T05:00:58.436Z,72.77
2023-03-16T05:02:59.846Z,71.31
2023-03-16T05:05:01.582Z,71.55
2023-03-16T05:07:03.188Z,71.65
2023-03-16T05:09:06.024Z,71.03
2023-03-16T05:11:07.830Z,71.41
2023-03-16T05:13:09.291Z,70.87
2023-03-16T05:15:11.524Z,71.66
2023-03-16T05:17:14.821Z,71.12
2023-03-16T05:19:16.339Z,71.29
2023-03-16T05:21:17.717Z,72.17
2023-03-16T05:23:20.326Z,72.52
2023-03-16T05:25:21.902Z,71.91
2023-03-16T05:27:23.257Z,72.46
2023-03-16T05:29:26.426Z,72.33
2023-03-16T05:31:28.812Z,71.58
2023-03-16T05:33:30.365Z,71.34
2023-03-16T05:35:32.398Z,72.24
2023-03-16T05:37:38.009Z,72.63
2023-03-16T05:39:39.409Z,72.00
2023-03-16T05:41:41.224Z,72.09
2023-03-16T05:43:43.569Z,71.81
2023-03-16T05:45:45.001Z,71.93
2023-03-16T05:47:46.407Z,71.47
2023-03-16T05:49:47.825Z,72.35
2023-03-16T05:51:50.668Z,73.00
2023-03-16T05:53:56.632Z,72.40
2023-03-16T05:55:58.158Z,71.50
2023-03-16T05:57:59.617Z,71.58
2023-03-16T06:00:11.252Z,71.71
2023-03-16T06:02:12.684Z,71.29
2023-03-16T06:04:14.340Z,72.00
2023-03-16T06:06:16.999Z,70.85
2023-03-16T06:08:18.405Z,71.17
2023-03-16T06:10:20.154Z,71.12
2023-03-16T06:12:21.549Z,71.59
2023-03-16T06:14:23.878Z,72.70
2023-03-16T06:16:25.924Z,71.48
2023-03-16T06:18:27.604Z,71.39
2023-03-16T06:20:29.431Z,70.01
2023-03-16T06:22:31.225Z,70.49
2023-03-16T06:24:32.599Z,70.93
2023-03-16T06:26:33.983Z,71.16
2023-03-16T06:28:35.391Z,69.27
2023-03-16T06:30:36.803Z,70.87
2023-03-16T06:32:38.850Z,69.30
2023-03-16T06:34:41.612Z,68.89
2023-03-16T06:36:43.084Z,69.31
2023-03-16T06:38:44.896Z,69.55
2023-03-16T06:40:46.428Z,69.50
2023-03-16T06:42:48.264Z,70.33
2023-03-16T06:44:49.798Z,70.05
2023-03-16T06:46:51.238Z,68.83
2023-03-16T06:48:52.622Z,70.18
2023-03-16T06:50:54.173Z,68.16
2023-03-16T06:52:55.794Z,67.73
2023-03-16T06:54:58.492Z,68.47
2023-03-16T06:56:59.994Z,68.11
2023-03-16T06:59:01.698Z,68.76
2023-03-16T07:01:04.145Z,67.44
2023-03-16T07:03:05.719Z,67.86
2023-03-16T07:05:07.975Z,66.87
2023-03-16T07:07:09.867Z,66.87
2023-03-16T07:09:12.461Z,66.33
2023-03-16T07:11:14.830Z,67.01
2023-03-16T07:13:16.243Z,66.46
2023-03-16T07:15:17.782Z,66.54
2023-03-16T07:17:19.229Z,66.75
2023-03-16T07:19:20.667Z,65.44
2023-03-16T07:21:22.144Z,65.36
2023-03-16T07:23:24.809Z,65.63
2023-03-16T07:25:26.202Z,65.41
2023-03-16T07:27:28.762Z,65.39
2023-03-16T07:29:30.199Z,64.77
2023-03-16T07:31:32.536Z,64.87
2023-03-16T07:33:34.747Z,63.74
2023-03-16T07:35:36.204Z,63.79
2023-03-16T07:37:37.907Z,64.28
2023-03-16T07:39:40.023Z,64.44
2023-03-16T07:41:41.674Z,65.98
2023-03-16T07:43:44.355Z,63.98
2023-03-16T07:45:52.302Z,64.23
2023-03-16T07:47:53.689Z,63.34
2023-03-16T07:49:55.095Z,63.78
2023-03-16T07:51:56.521Z,63.14
2023-03-16T07:53:57.903Z,65.21
2023-03-16T07:55:59.285Z,63.92
2023-03-16T07:58:01.555Z,63.46
2023-03-16T08:00:05.237Z,64.20
2023-03-16T08:02:07.091Z,62.52
2023-03-16T08:04:12.326Z,62.39
2023-03-16T08:06:13.751Z,60.67
2023-03-16T08:08:15.953Z,61.61
2023-03-16T08:10:18.243Z,59.25
2023-03-16T08:12:19.657Z,60.44
2023-03-16T08:14:21.243Z,59.42
2023-03-16T08:16:24.389Z,59.12
2023-03-16T08:18:26.705Z,58.33
2023-03-16T08:20:29.720Z,57.79
2023-03-16T08:22:31.276Z,59.12
2023-03-16T08:24:33.251Z,59.03
2023-03-16T08:26:34.818Z,57.47
2023-03-16T08:28:36.369Z,57.40
2023-03-16T08:30:38.009Z,57.40
2023-03-16T08:32:40.976Z,55.94
2023-03-16T08:34:42.526Z,56.32
2023-03-16T08:36:44.228Z,56.01
2023-03-16T08:39:03.897Z,56.25
2023-03-16T08:41:08.406Z,55.83
2023-03-16T08:43:09.790Z,55.86
2023-03-16T08:45:14.219Z,57.61
2023-03-16T08:47:16.097Z,57.07
2023-03-16T08:49:17.483Z,56.46
2023-03-16T08:51:19.609Z,56.02
2023-03-16T08:53:21.494Z,54.85
2023-03-16T08:55:24.423Z,55.39
2023-03-16T08:57:26.220Z,55.43
2023-03-16T08:59:30.475Z,54.19
2023-03-16T09:01:32.011Z,53.78
2023-03-16T09:03:34.793Z,54.28
2023-03-16T09:05:36.176Z,54.03
2023-03-16T09:07:39.229Z,55.20
2023-03-16T09:09:40.735Z,56.15
2023-03-16T09:11:42.121Z,55.23
2023-03-16T09:13:44.785Z,54.81
2023-03-16T09:15:46.179Z,54.60
2023-03-16T09:17:47.733Z,55.10
2023-03-16T09:19:51.774Z,57.61
2023-03-16T09:21:53.727Z,54.63
2023-03-16T09:23:56.237Z,54.62
2023-03-16T09:25:59.599Z,54.51
2023-03-16T09:28:01.030Z,55.68
2023-03-16T09:30:05.280Z,56.12
2023-03-16T09:32:07.710Z,56.23
2023-03-16T09:34:09.379Z,55.96
2023-03-16T09:36:14.195Z,56.41
2023-03-16T09:38:15.830Z,56.14
2023-03-16T09:40:23.270Z,56.38
2023-03-16T09:42:37.470Z,55.08
2023-03-16T09:45:26.758Z,55.45
2023-03-16T09:47:30.760Z,56.30
2023-03-16T09:49:43.300Z,56.07
2023-03-16T09:52:15.725Z,55.13
2023-03-16T09:54:27.601Z,55.52
2023-03-16T09:56:35.286Z,55.36
2023-03-16T09:58:36.969Z,53.86
2023-03-16T10:00:45.352Z,56.18
2023-03-16T10:03:30.029Z,54.69
2023-03-16T10:05:32.838Z,54.97
2023-03-16T10:08:00.571Z,54.86
2023-03-16T10:10:14.833Z,55.28
2023-03-16T10:12:17.122Z,54.21
2023-03-16T10:14:41.391Z,52.72
2023-03-16T10:17:08.220Z,52.75
2023-03-16T10:19:25.608Z,53.19
2023-03-16T10:21:27.894Z,52.82
2023-03-16T10:23:34.344Z,54.24
2023-03-16T10:25:50.048Z,53.52
2023-03-16T10:27:52.931Z,52.57
2023-03-16T10:29:55.055Z,51.41
2023-03-16T10:32:02.355Z,51.75
2023-03-16T10:34:06.132Z,50.84
2023-03-16T10:36:15.771Z,50.23
2023-03-16T10:38:55.197Z,52.19
2023-03-16T10:40:59.790Z,52.09
2023-03-16T10:43:12.829Z,50.62
2023-03-16T10:45:32.139Z,51.68
2023-03-16T10:47:34.254Z,52.04
2023-03-16T10:49:42.321Z,51.16
2023-03-16T10:51:43.902Z,51.63
2023-03-16T10:53:45.401Z,50.62
2023-03-16T10:55:47.937Z,50.79
2023-03-16T10:57:53.594Z,51.50
2023-03-16T10:59:59.582Z,49.80
2023-03-16T11:02:16.656Z,49.65
2023-03-16T11:04:19.688Z,49.99
2023-03-16T11:06:25.801Z,50.82
2023-03-16T11:08:32.189Z,50.23
2023-03-16T11:10:46.130Z,50.82
2023-03-16T11:12:56.935Z,51.94
2023-03-16T11:15:25.320Z,50.74
2023-03-16T11:17:49.893Z,51.91
2023-03-16T11:19:57.716Z,51.75
2023-03-16T11:22:13.114Z,52.25
2023-03-16T11:25:11.769Z,50.71
2023-03-16T11:27:23.734Z,53.04
2023-03-16T11:29:35.517Z,51.32
2023-03-16T11:31:57.298Z,51.81
2023-03-16T11:33:58.770Z,52.77
2023-03-16T11:36:08.864Z,53.49
2023-03-16T11:38:18.809Z,53.40
2023-03-16T11:40:53.855Z,54.08
2023-03-16T11:43:01.149Z,51.81
2023-03-16T11:45:05.465Z,53.58
2023-03-16T11:47:27.817Z,52.38
2023-03-16T11:49:50.623Z,53.11
2023-03-16T11:52:17.272Z,51.93
2023-03-16T11:54:24.971Z,53.71
2023-03-16T11:56:34.791Z,51.03
2023-03-16T11:58:56.205Z,50.64
2023-03-16T12:01:22.769Z,52.76
2023-03-16T12:03:59.018Z,51.58
2023-03-16T12:06:39.008Z,50.68
2023-03-16T12:08:55.754Z,51.19
2023-03-16T12:11:02.693Z,52.92
2023-03-16T12:13:12.858Z,49.86
2023-03-16T12:15:24.339Z,51.50
2023-03-16T12:17:31.115Z,51.23
2023-03-16T12:19:44.724Z,49.46
2023-03-16T12:21:49.263Z,49.34
2023-03-16T12:23:53.484Z,50.21
2023-03-16T12:25:59.130Z,51.23
2023-03-16T12:28:05.615Z,49.74
2023-03-16T12:30:35.800Z,48.02
2023-03-16T12:32:49.399Z,50.04
2023-03-16T12:35:02.867Z,48.84
2023-03-16T12:37:19.685Z,48.73
2023-03-16T12:39:32.617Z,49.30
2023-03-16T12:41:59.154Z,46.59
2023-03-16T12:44:04.148Z,49.06
2023-03-16T12:46:18.485Z,48.48
2023-03-16T12:48:29.824Z,45.93
2023-03-16T12:50:31.764Z,46.50
2023-03-16T12:52:42.092Z,48.69
2023-03-16T12:54:54.821Z,48.99
2023-03-16T12:57:06.958Z,48.35
2023-03-16T12:59:16.882Z,48.90
2023-03-16T13:01:24.944Z,48.58
2023-03-16T13:03:28.412Z,47.38
2023-03-16T13:05:36.276Z,49.03
2023-03-16T13:07:46.434Z,49.00
2023-03-16T13:09:52.779Z,47.98
2023-03-16T13:11:54.309Z,48.76
2023-03-16T13:14:01.865Z,47.25
2023-03-16T13:16:10.954Z,47.56
2023-03-16T13:18:15.095Z,47.43
2023-03-16T13:20:35.022Z,47.92
2023-03-16T13:22:50.826Z,48.98
2023-03-16T13:25:14.270Z,47.96
2023-03-16T13:27:44.514Z,47.62
2023-03-16T13:29:56.621Z,46.44
2023-03-16T13:32:01.724Z,49.14
2023-03-16T13:34:06.697Z,46.77
2023-03-16T13:36:10.357Z,47.34
2023-03-16T13:38:16.476Z,45.79
2023-03-16T13:40:24.565Z,46.51
2023-03-16T13:42:30.003Z,47.51
2023-03-16T13:44:32.080Z,48.05
2023-03-16T13:46:33.689Z,46.53
2023-03-16T13:48:37.188Z,47.91
2023-03-16T13:50:41.254Z,46.13
2023-03-16T13:52:44.181Z,48.08
2023-03-16T13:54:45.607Z,46.09
2023-03-16T13:56:47.355Z,47.09
2023-03-16T13:58:51.724Z,47.35
2023-03-16T14:00:58.691Z,47.46
2023-03-16T14:03:09.191Z,47.28
2023-03-16T14:05:33.334Z,47.24
2023-03-16T14:07:38.460Z,47.68
2023-03-16T14:09:40.007Z,46.52
2023-03-16T14:11:42.806Z,46.39
2023-03-16T14:13:52.804Z,45.40
2023-03-16T14:15:56.440Z,46.45
2023-03-16T14:18:21.196Z,47.71
2023-03-16T14:20:25.898Z,46.28
2023-03-16T14:22:39.581Z,45.64
2023-03-16T14:24:41.596Z,44.76
2023-03-16T14:26:45.961Z,46.84
2023-03-16T14:29:01.898Z,45.87
2023-03-16T14:31:10.010Z,46.80
2023-03-16T14:33:28.613Z,44.92
2023-03-16T14:35:32.445Z,45.22
2023-03-16T14:37:35.722Z,45.87
2023-03-16T14:39:38.263Z,43.96
2023-03-16T14:41:40.044Z,47.00
2023-03-16T14:44:17.371Z,46.25
2023-03-16T14:46:30.404Z,43.92
2023-03-16T14:48:32.684Z,43.65
2023-03-16T14:50:34.780Z,43.82
2023-03-16T14:52:36.514Z,45.16
2023-03-16T14:54:37.902Z,43.87
2023-03-16T14:56:39.274Z,44.93
2023-03-16T14:58:41.219Z,45.04
2023-03-16T15:00:52.644Z,44.61
2023-03-16T15:03:06.448Z,44.63
2023-03-16T15:05:09.526Z,45.76
2023-03-16T15:07:29.585Z,45.44
2023-03-16T15:09:36.463Z,44.69
2023-03-16T15:11:38.350Z,44.18
2023-03-16T15:13:39.755Z,40.03
2023-03-16T15:15:42.499Z,37.14
2023-03-16T15:17:44.439Z,33.74
2023-03-16T15:19:45.904Z,33.68
2023-03-16T15:21:47.291Z,34.41
2023-03-16T15:23:49.017Z,32.11
2023-03-16T15:25:52.708Z,33.06
2023-03-16T15:27:54.656Z,31.48
2023-03-16T15:29:56.609Z,34.10
2023-03-16T15:31:58.023Z,33.13
2023-03-16T15:33:59.404Z,32.20
2023-03-16T15:36:06.983Z,32.08
2023-03-16T15:38:33.371Z,34.52
2023-03-16T15:40:35.788Z,35.43
2023-03-16T15:42:37.177Z,35.39
2023-03-16T15:44:38.793Z,34.00
2023-03-16T15:46:40.223Z,29.66
2023-03-16T15:48:41.747Z,29.56
2023-03-16T15:50:51.026Z,29.74
2023-03-16T15:52:59.915Z,30.58
2023-03-16T15:55:07.604Z,31.50
2023-03-16T15:57:10.659Z,30.29
2023-03-16T15:59:17.027Z,29.64
2023-03-16T16:01:26.243Z,27.73
2023-03-16T16:03:27.734Z,27.22
2023-03-16T16:05:30.855Z,28.77
2023-03-16T16:07:32.258Z,27.69
2023-03-16T16:09:37.621Z,30.33
2023-03-16T16:11:41.156Z,31.44
2023-03-16T16:13:45.178Z,33.25
2023-03-16T16:15:47.163Z,34.86
2023-03-16T16:18:13.271Z,34.95
2023-03-16T16:20:27.365Z,37.29
2023-03-16T16:22:28.864Z,43.34
2023-03-16T16:24:30.274Z,38.32
2023-03-16T16:26:49.835Z,38.27
2023-03-16T16:28:53.003Z,39.97
2023-03-16T16:30:55.842Z,39.33
2023-03-16T16:32:58.908Z,41.54
2023-03-16T16:35:04.582Z,40.55
2023-03-16T16:37:06.500Z,41.74
2023-03-16T16:39:07.998Z,40.15
2023-03-16T16:41:10.416Z,41.40
2023-03-16T16:43:24.419Z,41.77
2023-03-16T16:45:26.099Z,42.49
2023-03-16T16:47:27.489Z,43.40
2023-03-16T16:49:30.938Z,43.79
2023-03-16T16:51:33.159Z,44.02
2023-03-16T16:53:35.380Z,44.55
2023-03-16T16:55:37.269Z,44.21
2023-03-16T16:57:39.133Z,44.06
2023-03-16T16:59:41.851Z,45.59
2023-03-16T17:01:43.310Z,45.79
2023-03-16T17:03:44.800Z,45.98
2023-03-16T17:05:46.224Z,45.17
2023-03-16T17:07:48.169Z,45.91
2023-03-16T17:09:50.761Z,46.38
2023-03-16T17:11:54.085Z,47.11
2023-03-16T17:13:58.245Z,47.23
2023-03-16T17:16:00.130Z,49.01
2023-03-16T17:18:05.015Z,50.12
2023-03-16T17:20:15.299Z,48.84
2023-03-16T17:22:25.111Z,48.92
2023-03-16T17:24:26.791Z,49.59
2023-03-16T17:26:31.591Z,49.52
2023-03-16T17:28:38.682Z,50.08
2023-03-16T17:30:40.209Z,51.69
2023-03-16T17:32:41.675Z,50.99
2023-03-16T17:34:43.494Z,51.39
2023-03-16T17:36:46.753Z,51.03
2023-03-16T17:38:48.314Z,52.80
2023-03-16T17:40:51.686Z,52.20
2023-03-16T17:42:55.895Z,51.66
2023-03-16T17:44:58.041Z,52.72
2023-03-16T17:46:59.509Z,54.16
2023-03-16T17:49:01.933Z,53.81
2023-03-16T17:51:03.515Z,54.14
2023-03-16T17:53:04.870Z,54.01
2023-03-16T17:55:06.891Z,54.93
2023-03-16T17:57:17.807Z,54.43
2023-03-16T17:59:21.130Z,54.91
2023-03-16T18:01:33.418Z,55.19
2023-03-16T18:03:36.047Z,55.20
2023-03-16T18:05:38.099Z,55.72
2023-03-16T18:07:39.789Z,57.17
2023-03-16T18:09:44.893Z,55.96
2023-03-16T18:11:49.926Z,56.14
2023-03-16T18:13:51.869Z,57.14
2023-03-16T18:15:55.807Z,56.75
2023-03-16T18:17:58.382Z,56.92
2023-03-16T18:20:00.323Z,56.63
2023-03-16T18:22:01.706Z,57.68
2023-03-16T18:24:03.191Z,57.91
2023-03-16T18:26:06.259Z,58.23
2023-03-16T18:28:09.756Z,58.68
2023-03-16T18:30:11.579Z,58.93
2023-03-16T18:32:21.571Z,59.01
2023-03-16T18:34:27.722Z,59.63
2023-03-16T18:36:32.584Z,60.25
2023-03-16T18:38:36.939Z,59.64
2023-03-16T18:40:38.611Z,60.30
2023-03-16T18:42:40.003Z,60.86
2023-03-16T18:44:41.393Z,60.24
2023-03-16T18:46:44.569Z,60.39
2023-03-16T18:48:45.966Z,61.62
2023-03-16T18:50:47.975Z,61.11
2023-03-16T18:52:50.332Z,61.65
2023-03-16T18:54:53.038Z,61.64
2023-03-16T18:56:54.762Z,61.89
2023-03-16T18:58:56.642Z,61.56
2023-03-16T19:01:01.689Z,61.62
2023-03-16T19:03:03.667Z,62.92
2023-03-16T19:05:11.095Z,61.92
2023-03-16T19:07:24.505Z,62.86
2023-03-16T19:09:28.891Z,62.48
2023-03-16T19:11:30.353Z,62.80
2023-03-16T19:13:31.737Z,62.42
2023-03-16T19:15:35.986Z,62.82
2023-03-16T19:17:37.446Z,63.17
2023-03-16T19:19:38.918Z,63.59
2023-03-16T19:21:41.257Z,63.33
2023-03-16T19:23:43.966Z,63.39
2023-03-16T19:25:45.981Z,63.63
2023-03-16T19:27:48.136Z,63.17
2023-03-16T19:29:52.233Z,62.72
2023-03-16T19:31:56.392Z,62.85
2023-03-16T19:33:58.460Z,64.18
2023-03-16T19:36:00.159Z,63.67
2023-03-16T19:38:01.787Z,63.67
2023-03-16T19:40:05.158Z,63.39
2023-03-16T19:42:15.055Z,63.20
2023-03-16T19:44:19.926Z,63.68
2023-03-16T19:46:28.941Z,63.06
2023-03-16T19:48:34.214Z,63.81
2023-03-16T19:50:35.936Z,64.20
2023-03-16T19:52:37.315Z,63.99
2023-03-16T19:54:40.340Z,63.37
2023-03-16T19:56:42.389Z,63.94
2023-03-16T19:58:47.362Z,63.49
2023-03-16T20:00:49.823Z,63.49
2023-03-16T20:02:55.155Z,63.31
2023-03-16T20:04:57.237Z,62.97
2023-03-16T20:06:58.808Z,64.06
2023-03-16T20:09:00.180Z,62.89
2023-03-16T20:11:08.579Z,62.89
2023-03-16T20:13:10.855Z,62.53
2023-03-16T20:15:22.160Z,62.62
2023-03-16T20:17:26.138Z,62.03
2023-03-16T20:19:28.490Z,63.02
2023-03-16T20:21:29.892Z,62.99
2023-03-16T20:23:31.728Z,62.63
2023-03-16T20:25:34.603Z,62.50
2023-03-16T20:27:36.524Z,62.58
2023-03-16T20:29:38.242Z,62.30
2023-03-16T20:31:39.772Z,62.35
2023-03-16T20:33:41.412Z,62.51
2023-03-16T20:35:42.802Z,62.49
2023-03-16T20:37:44.817Z,62.59
2023-03-16T20:39:46.268Z,62.87
2023-03-16T20:41:47.984Z,62.76
2023-03-16T20:43:49.397Z,62.95
2023-03-16T20:45:52.721Z,63.26
2023-03-16T20:47:54.766Z,62.76
2023-03-16T20:49:59.136Z,62.22
2023-03-16T20:52:00.868Z,62.09
2023-03-16T20:54:02.423Z,62.65
2023-03-16T20:56:04.237Z,62.14
2023-03-16T20:58:18.098Z,61.80
2023-03-16T21:00:26.493Z,62.65
2023-03-16T21:02:35.649Z,62.92
2023-03-16T21:04:37.142Z,62.13
2023-03-16T21:06:38.637Z,63.02
2023-03-16T21:08:40.015Z,62.51
2023-03-16T21:10:46.166Z,63.00
2023-03-16T21:12:51.949Z,62.23
2023-03-16T21:14:53.881Z,62.82
2023-03-16T21:16:55.592Z,62.88
2023-03-16T21:18:57.017Z,63.09
2023-03-16T21:20:58.962Z,61.37
2023-03-16T21:23:00.901Z,61.98
2023-03-16T21:25:02.456Z,61.43
2023-03-16T21:27:03.984Z,61.52
2023-03-16T21:29:10.852Z,61.69
2023-03-16T21:31:19.555Z,60.40
2023-03-16T21:33:40.150Z,62.26
2023-03-16T21:35:41.807Z,61.02
2023-03-16T21:37:43.752Z,60.96
2023-03-16T21:39:46.538Z,60.17
2023-03-16T21:41:50.485Z,61.61
2023-03-16T21:43:52.286Z,60.30
2023-03-16T21:45:55.063Z,60.53
2023-03-16T21:47:56.799Z,61.90
2023-03-16T21:49:59.253Z,61.33
2023-03-16T21:52:02.246Z,60.94
2023-03-16T21:54:04.044Z,61.63
2023-03-16T21:56:06.541Z,62.80
2023-03-16T21:58:09.380Z,61.88
2023-03-16T22:00:35.368Z,60.96
2023-03-16T22:02:37.663Z,61.55
2023-03-16T22:04:39.182Z,61.18
2023-03-16T22:06:42.398Z,61.43
2023-03-16T22:08:43.992Z,61.22
2023-03-16T22:10:45.801Z,62.03
2023-03-16T22:12:47.201Z,61.29
2023-03-16T22:14:48.712Z,60.88
2023-03-16T22:16:50.377Z,61.84
2023-03-16T22:18:56.283Z,61.95
2023-03-16T22:20:59.115Z,61.40
2023-03-16T22:23:01.302Z,61.34
2023-03-16T22:25:02.775Z,61.36
2023-03-16T22:27:04.386Z,61.19
2023-03-16T22:29:25.214Z,60.62
2023-03-16T22:31:33.533Z,60.63
2023-03-16T22:33:37.553Z,60.35
2023-03-16T22:35:39.501Z,60.43
2023-03-16T22:37:41.283Z,61.56
2023-03-16T22:39:42.898Z,61.03
2023-03-16T22:41:44.296Z,61.02
2023-03-16T22:43:45.836Z,61.40
2023-03-16T22:45:48.645Z,60.57
2023-03-16T22:47:51.153Z,60.67
2023-03-16T22:49:53.617Z,61.54
2023-03-16T22:51:57.447Z,60.70
2023-03-16T22:54:02.505Z,61.06
2023-03-16T22:56:05.389Z,60.62
2023-03-16T22:58:33.555Z,61.08
2023-03-16T23:00:35.343Z,60.94
2023-03-16T23:02:37.390Z,60.19
2023-03-16T23:04:38.951Z,60.97
2023-03-16T23:06:40.957Z,61.99
2023-03-16T23:08:42.438Z,61.50
2023-03-16T23:10:44.998Z,60.49
2023-03-16T23:14:47.976Z,60.88
2023-03-16T23:16:51.919Z,61.16
2023-03-16T23:18:53.900Z,61.42
2023-03-16T23:20:55.831Z,61.60
2023-03-16T23:22:57.405Z,62.01
2023-03-16T23:24:58.915Z,62.03
2023-03-16T23:27:01.171Z,63.64
2023-03-16T23:29:02.610Z,62.20
2023-03-16T23:31:04.169Z,61.75
2023-03-16T23:33:05.689Z,61.67
2023-03-16T23:35:16.697Z,62.57
2023-03-16T23:37:18.052Z,61.29
2023-03-16T23:39:19.633Z,61.51
2023-03-16T23:41:23.442Z,62.06
2023-03-16T23:43:24.904Z,61.18
2023-03-16T23:45:44.976Z,61.43
2023-03-16T23:47:48.710Z,61.92
2023-03-16T23:49:50.166Z,62.03
2023-03-16T23:51:52.783Z,61.66
2023-03-16T23:53:54.986Z,61.54
2023-03-16T23:55:56.795Z,61.17
2023-03-16T23:57:58.237Z,61.76
2023-03-16T23:59:59.619Z,61.49
